Time;durP1;ratioP1;P1;durP2;ratioP2;P2;SDS_P1;SDS_P2;PMS_P1;PMS_P2;Temp;Humidity;BMP_temperature;BMP_pressure;BME280_temperature;BME280_humidity;BME280_pressure;Samples;Min_cycle;Max_cycle;Signal;HPM_P1;HPM_P2
2022/09/04 00:01:48;;;;;;;10.57;8.50;;;20.00;99.90;;;;;;4911496;29;20311;-53
2022/09/04 00:04:35;;;;;;;8.80;7.90;;;20.00;99.90;;;;;;4901444;29;20830;-52
2022/09/04 00:07:23;;;;;;;8.53;7.63;;;20.00;99.90;;;;;;4904242;29;20239;-52
2022/09/04 00:09:53;;;;;;;11.23;8.27;;;20.10;99.90;;;;;;4907490;29;20200;-53
2022/09/04 00:12:31;;;;;;;9.07;8.13;;;20.20;99.90;;;;;;4909450;29;20803;-53
2022/09/04 00:15:12;;;;;;;8.57;7.73;;;20.20;99.90;;;;;;4913568;29;20287;-54
2022/09/04 00:17:50;;;;;;;9.57;7.33;;;20.20;99.90;;;;;;4990970;28;20716;-53
2022/09/04 00:20:34;;;;;;;7.90;7.17;;;20.00;99.90;;;;;;4987868;28;20198;-53
2022/09/04 00:23:15;;;;;;;8.03;7.23;;;20.00;99.90;;;;;;4990426;28;20596;-52
2022/09/04 00:25:59;;;;;;;7.27;6.57;;;20.00;99.90;;;;;;4993913;28;20274;-52
2022/09/04 00:28:34;;;;;;;8.33;6.90;;;20.00;99.90;;;;;;4990306;28;20647;-54
2022/09/04 00:31:13;;;;;;;7.53;6.70;;;20.10;99.90;;;;;;4988731;28;20289;-53
2022/09/04 00:33:55;;;;;;;9.60;6.43;;;20.10;99.90;;;;;;4994465;28;20202;-53
2022/09/04 00:36:26;;;;;;;8.20;7.40;;;20.00;99.90;;;;;;4991877;28;20267;-53
2022/09/04 00:38:59;;;;;;;7.63;6.93;;;20.00;99.90;;;;;;4989192;28;20680;-52
2022/09/04 00:42:14;;;;;;;7.80;6.83;;;20.00;99.90;;;;;;4991109;28;20225;-52
2022/09/04 00:44:51;;;;;;;8.63;7.60;;;19.90;99.90;;;;;;4978510;28;20209;-52
2022/09/04 00:47:29;;;;;;;8.63;6.83;;;19.90;99.90;;;;;;4992623;28;20206;-52
2022/09/04 00:50:25;;;;;;;7.90;7.20;;;19.80;99.90;;;;;;4983642;28;20202;-53
2022/09/04 00:53:12;;;;;;;7.83;7.03;;;19.90;99.90;;;;;;4978858;28;20430;-53
2022/09/04 00:55:55;;;;;;;7.93;7.13;;;19.80;99.90;;;;;;4985435;28;20311;-53
2022/09/04 00:58:21;;;;;;;11.80;7.60;;;19.90;99.90;;;;;;4977203;28;20304;-53
2022/09/04 01:00:49;;;;;;;9.13;7.17;;;19.80;99.90;;;;;;4976421;28;20201;-53
2022/09/04 01:03:18;;;;;;;8.57;7.07;;;19.80;99.90;;;;;;4971862;28;20721;-53
2022/09/04 01:06:20;;;;;;;8.20;7.40;;;19.80;99.90;;;;;;4986726;28;20599;-54
2022/09/04 01:09:15;;;;;;;9.93;7.37;;;19.80;99.90;;;;;;4986890;28;20593;-53
2022/09/04 01:11:59;;;;;;;11.33;7.53;;;19.80;99.90;;;;;;4977025;28;20202;-53
2022/09/04 01:15:13;;;;;;;9.03;8.13;;;19.80;99.90;;;;;;4971884;28;20212;-53
2022/09/04 01:17:52;;;;;;;8.23;7.43;;;19.70;99.90;;;;;;4985313;28;20209;-53
2022/09/04 01:20:37;;;;;;;8.53;7.73;;;19.60;99.90;;;;;;4982858;28;20208;-53
2022/09/04 01:23:38;;;;;;;12.93;8.13;;;19.70;99.90;;;;;;4987315;28;20198;-52
2022/09/04 01:26:17;;;;;;;18.03;8.10;;;19.70;99.90;;;;;;4990226;28;20734;-52
2022/09/04 01:28:57;;;;;;;8.67;7.87;;;19.60;99.90;;;;;;4993077;28;20638;-53
2022/09/04 01:31:53;;;;;;;9.10;8.20;;;19.60;99.90;;;;;;4988596;28;20202;-53
2022/09/04 01:34:20;;;;;;;9.13;7.90;;;19.40;99.90;;;;;;4992495;28;20634;-53
2022/09/04 01:37:21;;;;;;;11.77;8.70;;;19.40;99.90;;;;;;4990259;28;20301;-53
2022/09/04 01:40:05;;;;;;;9.60;8.70;;;19.40;99.90;;;;;;4993690;28;20733;-53
2022/09/04 01:42:49;;;;;;;8.67;7.80;;;19.50;99.90;;;;;;4995366;28;20238;-57
2022/09/04 01:45:41;;;;;;;9.17;8.27;;;19.40;99.90;;;;;;4995381;28;20209;-53
2022/09/04 01:48:15;;;;;;;10.50;9.20;;;19.30;99.90;;;;;;4999112;28;20237;-53
2022/09/04 01:50:48;;;;;;;11.00;9.90;;;19.40;99.90;;;;;;4996948;28;20287;-53
2022/09/04 01:53:24;;;;;;;12.50;9.70;;;19.30;99.90;;;;;;4996993;28;20259;-53
2022/09/04 01:56:18;;;;;;;11.83;9.93;;;19.20;99.90;;;;;;4996842;28;20309;-53
2022/09/04 01:59:05;;;;;;;11.57;10.23;;;19.30;99.90;;;;;;4995385;28;20244;-53
2022/09/04 02:01:43;;;;;;;12.33;10.43;;;19.30;99.90;;;;;;4997644;28;20715;-51
2022/09/04 02:04:20;;;;;;;13.17;10.30;;;19.00;99.90;;;;;;4997122;28;20237;-52
2022/09/04 02:06:50;;;;;;;13.03;11.73;;;18.90;99.90;;;;;;4995969;28;20276;-52
2022/09/04 02:09:42;;;;;;;11.47;10.37;;;19.10;99.90;;;;;;4996375;28;20561;-52
2022/09/04 02:12:34;;;;;;;12.13;10.00;;;19.10;99.90;;;;;;4994994;28;20293;-53
2022/09/04 02:15:24;;;;;;;11.20;10.00;;;19.30;99.90;;;;;;4994982;28;20198;-53
2022/09/04 02:18:18;;;;;;;11.77;10.67;;;19.20;99.90;;;;;;4998256;28;20216;-54
2022/09/04 02:21:03;;;;;;;12.13;10.87;;;19.00;99.90;;;;;;4997423;28;20354;-53
2022/09/04 02:23:45;;;;;;;12.07;10.77;;;19.00;99.90;;;;;;4998400;28;20246;-54
2022/09/04 02:26:56;;;;;;;12.80;11.03;;;19.00;99.90;;;;;;4999005;28;20574;-52
2022/09/04 02:29:36;;;;;;;18.70;11.70;;;18.90;99.90;;;;;;4981395;28;20210;-53
2022/09/04 02:32:05;;;;;;;13.17;11.70;;;19.00;99.90;;;;;;4995132;28;20233;-54
2022/09/04 02:34:46;;;;;;;12.83;11.53;;;18.90;99.90;;;;;;4998292;28;20197;-53
2022/09/04 02:37:40;;;;;;;12.93;11.63;;;18.80;99.90;;;;;;4995470;28;20206;-53
2022/09/04 02:40:24;;;;;;;12.83;11.57;;;18.80;99.90;;;;;;4995070;28;20677;-58
2022/09/04 02:43:31;;;;;;;14.60;12.30;;;18.80;99.90;;;;;;4994626;28;20201;-53
2022/09/04 02:46:32;;;;;;;15.10;12.43;;;18.90;99.90;;;;;;4992778;28;20221;-53
2022/09/04 02:49:12;;;;;;;13.53;12.23;;;18.70;99.90;;;;;;4995308;28;20951;-53
2022/09/04 02:52:09;;;;;;;13.40;12.00;;;18.60;99.90;;;;;;4995602;28;20237;-53
2022/09/04 02:55:10;;;;;;;13.07;11.83;;;18.50;99.90;;;;;;4997966;28;20255;-52
2022/09/04 02:58:15;;;;;;;13.43;12.03;;;18.60;99.90;;;;;;4998327;28;20332;-53
2022/09/04 03:01:13;;;;;;;14.20;12.70;;;18.70;99.90;;;;;;4996646;28;20214;-53
2022/09/04 03:04:02;;;;;;;14.13;12.43;;;18.60;99.90;;;;;;4983465;28;20205;-53
2022/09/04 03:07:13;;;;;;;14.57;11.90;;;18.60;99.90;;;;;;4992469;28;20222;-53
2022/09/04 03:09:46;;;;;;;16.13;12.23;;;18.50;99.90;;;;;;4954384;28;20234;-53
2022/09/04 03:12:25;;;;;;;13.73;11.87;;;18.60;99.90;;;;;;4954238;28;20268;-52
2022/09/04 03:15:12;;;;;;;13.90;12.47;;;18.60;99.90;;;;;;4978641;28;20261;-53
2022/09/04 03:18:00;;;;;;;14.43;12.53;;;18.60;99.90;;;;;;4991140;28;20209;-52
2022/09/04 03:20:35;;;;;;;13.77;12.27;;;18.60;99.90;;;;;;4993278;28;20256;-53
2022/09/04 03:23:08;;;;;;;14.83;13.10;;;18.60;99.90;;;;;;4992481;28;20301;-52
2022/09/04 03:25:54;;;;;;;16.93;13.10;;;18.60;99.90;;;;;;4997151;28;20610;-52
2022/09/04 03:28:30;;;;;;;15.27;13.67;;;18.50;99.90;;;;;;4994621;28;20266;-52
2022/09/04 03:31:19;;;;;;;15.23;12.50;;;18.50;99.90;;;;;;4994388;28;20440;-52
2022/09/04 03:33:58;;;;;;;14.97;13.40;;;18.40;99.90;;;;;;4994426;28;20194;-53
2022/09/04 03:37:00;;;;;;;15.97;13.50;;;18.30;99.90;;;;;;4993935;28;20252;-52
2022/09/04 03:40:04;;;;;;;13.77;12.47;;;18.40;99.90;;;;;;4993907;28;20252;-53
2022/09/04 03:42:34;;;;;;;13.80;12.50;;;18.40;99.90;;;;;;4993029;28;20296;-53
2022/09/04 03:45:18;;;;;;;14.83;13.20;;;18.40;99.90;;;;;;4995188;28;20296;-53
2022/09/04 03:47:57;;;;;;;15.00;12.57;;;18.30;99.90;;;;;;4994143;28;20217;-52
2022/09/04 03:50:58;;;;;;;15.27;13.47;;;18.30;99.90;;;;;;4993137;28;20233;-53
2022/09/04 03:53:40;;;;;;;14.40;11.67;;;18.20;99.90;;;;;;4992514;28;20205;-52
2022/09/04 03:56:16;;;;;;;13.67;12.13;;;18.20;99.90;;;;;;4997216;28;20210;-52
2022/09/04 03:59:03;;;;;;;16.80;12.77;;;18.20;99.90;;;;;;4977413;28;20220;-52
2022/09/04 04:01:53;;;;;;;14.10;12.40;;;18.30;99.90;;;;;;4994154;28;20247;-51
2022/09/04 04:04:38;;;;;;;14.43;12.67;;;18.20;99.90;;;;;;4992020;28;20300;-53
2022/09/04 04:07:45;;;;;;;16.23;12.87;;;18.10;99.90;;;;;;4992784;28;20686;-54
2022/09/04 04:10:22;;;;;;;14.03;12.60;;;18.10;99.90;;;;;;4992308;28;20344;-52
2022/09/04 04:13:12;;;;;;;14.13;12.47;;;18.00;99.90;;;;;;4992588;28;20675;-53
2022/09/04 04:16:16;;;;;;;13.77;12.40;;;18.00;99.90;;;;;;4959977;28;20616;-52
2022/09/04 04:19:26;;;;;;;14.60;13.00;;;17.90;99.90;;;;;;4997132;28;20582;-53
2022/09/04 04:22:19;;;;;;;14.97;12.53;;;17.90;99.90;;;;;;4995659;28;20255;-54
2022/09/04 04:25:16;;;;;;;13.67;12.13;;;17.70;99.90;;;;;;4995423;28;20612;-53
2022/09/04 04:28:02;;;;;;;15.50;13.90;;;17.80;99.90;;;;;;4996986;28;20640;-53
2022/09/04 04:30:53;;;;;;;15.23;13.67;;;17.90;99.90;;;;;;4991939;28;20835;-53
2022/09/04 04:33:37;;;;;;;14.63;11.87;;;18.00;99.90;;;;;;4996922;28;20667;-53
2022/09/04 04:36:23;;;;;;;15.10;12.30;;;17.90;99.90;;;;;;4993505;28;20225;-53
2022/09/04 04:39:08;;;;;;;13.73;12.03;;;17.90;99.90;;;;;;4996668;28;20280;-53
2022/09/04 04:42:06;;;;;;;15.27;12.10;;;17.80;99.90;;;;;;4995029;28;20233;-52
2022/09/04 04:47:42;;;;;;;12.90;11.60;;;17.90;99.90;;;;;;4996383;28;20270;-53
2022/09/04 04:50:15;;;;;;;14.63;11.53;;;17.90;99.90;;;;;;4995208;28;20689;-52
2022/09/04 04:53:04;;;;;;;12.80;11.10;;;17.90;99.90;;;;;;4998309;28;20229;-55
2022/09/04 04:55:34;;;;;;;14.00;11.43;;;17.90;99.90;;;;;;4994619;28;20344;-54
2022/09/04 04:58:10;;;;;;;12.93;11.63;;;17.90;99.90;;;;;;4994286;28;20213;-54
2022/09/04 05:01:18;;;;;;;16.10;11.70;;;17.90;99.90;;;;;;4994056;28;20255;-53
2022/09/04 05:04:08;;;;;;;13.23;11.10;;;17.90;99.90;;;;;;4968653;28;21123;-53
2022/09/04 05:06:55;;;;;;;13.63;10.90;;;17.90;99.90;;;;;;4995139;28;20265;-53
2022/09/04 05:09:38;;;;;;;12.50;11.20;;;17.80;99.90;;;;;;4991075;28;20837;-52
2022/09/04 05:12:19;;;;;;;11.17;9.93;;;17.80;99.90;;;;;;4992324;28;20283;-52
2022/09/04 05:15:18;;;;;;;12.90;11.03;;;17.90;99.90;;;;;;4995631;28;20229;-52
2022/09/04 05:18:04;;;;;;;11.97;10.03;;;17.90;99.90;;;;;;4961010;28;20213;-52
2022/09/04 05:20:50;;;;;;;13.00;10.87;;;17.90;99.90;;;;;;4992416;28;20205;-53
2022/09/04 05:23:35;;;;;;;12.33;10.37;;;18.00;99.90;;;;;;4993143;28;20225;-52
2022/09/04 05:26:17;;;;;;;11.10;9.90;;;18.00;99.90;;;;;;4994156;28;20240;-52
2022/09/04 05:29:06;;;;;;;13.07;10.50;;;17.90;99.90;;;;;;4992831;28;20650;-53
2022/09/04 05:32:01;;;;;;;11.87;10.13;;;17.90;99.90;;;;;;4996611;28;20751;-52
2022/09/04 05:34:50;;;;;;;11.67;10.20;;;18.00;99.90;;;;;;4999020;28;20307;-52
2022/09/04 05:37:20;;;;;;;15.80;10.00;;;18.00;99.90;;;;;;4993454;28;20202;-52
2022/09/04 05:40:02;;;;;;;13.60;10.37;;;18.00;99.90;;;;;;4997221;28;20662;-53
2022/09/04 05:42:32;;;;;;;11.47;10.27;;;18.10;99.90;;;;;;4996215;28;20213;-52
2022/09/04 05:45:22;;;;;;;12.40;11.00;;;18.00;99.90;;;;;;4993919;28;20292;-52
2022/09/04 05:47:57;;;;;;;13.60;11.17;;;18.00;99.90;;;;;;4992971;28;20228;-53
2022/09/04 05:50:39;;;;;;;11.17;9.77;;;18.10;99.90;;;;;;4994205;28;20423;-52
2022/09/04 05:53:05;;;;;;;11.43;10.27;;;18.00;99.90;;;;;;4993159;28;20396;-52
2022/09/04 05:55:45;;;;;;;11.40;10.17;;;18.00;99.90;;;;;;4992503;28;20605;-53
2022/09/04 05:58:40;;;;;;;11.93;10.73;;;18.10;99.90;;;;;;4993304;28;20209;-55
2022/09/04 06:01:21;;;;;;;14.47;11.93;;;18.10;99.90;;;;;;4981421;28;20210;-54
2022/09/04 06:03:58;;;;;;;11.60;9.97;;;18.10;99.90;;;;;;4990363;28;20209;-52
2022/09/04 06:06:34;;;;;;;13.40;10.67;;;18.10;99.90;;;;;;4995796;28;20286;-52
2022/09/04 06:09:22;;;;;;;11.37;9.97;;;18.20;99.90;;;;;;4993949;28;20201;-52
2022/09/04 06:11:50;;;;;;;11.37;10.23;;;18.20;99.90;;;;;;4999447;28;20284;-52
2022/09/04 06:14:32;;;;;;;12.90;11.47;;;18.20;99.90;;;;;;4995553;28;20206;-52
2022/09/04 06:17:17;;;;;;;11.93;10.73;;;18.30;99.90;;;;;;4995801;28;20205;-53
2022/09/04 06:20:10;;;;;;;11.20;10.10;;;18.30;99.90;;;;;;4994780;28;20271;-53
2022/09/04 06:22:43;;;;;;;13.37;9.40;;;18.40;99.90;;;;;;4997144;28;20214;-53
2022/09/04 06:25:52;;;;;;;11.40;10.27;;;18.50;99.90;;;;;;4999110;28;20560;-53
2022/09/04 06:28:39;;;;;;;13.37;10.20;;;18.60;99.90;;;;;;4995734;28;20221;-53
2022/09/04 06:31:18;;;;;;;11.97;10.77;;;18.60;99.90;;;;;;4996413;28;20261;-57
2022/09/04 06:34:04;;;;;;;13.77;10.17;;;18.60;99.90;;;;;;4994320;28;20774;-53
2022/09/04 06:36:41;;;;;;;12.57;10.03;;;18.70;99.90;;;;;;4996741;28;20264;-54
2022/09/04 06:39:16;;;;;;;11.47;10.27;;;18.80;99.90;;;;;;4995234;28;20669;-54
2022/09/04 06:41:55;;;;;;;12.20;10.00;;;18.70;99.90;;;;;;5015009;28;20260;-54
2022/09/04 06:44:37;;;;;;;11.57;10.37;;;18.80;99.90;;;;;;4993358;28;20328;-52
2022/09/04 06:47:24;;;;;;;11.60;10.07;;;18.80;99.90;;;;;;4993187;28;20272;-53
2022/09/04 06:50:31;;;;;;;11.60;10.40;;;18.90;99.90;;;;;;4992298;28;20210;-52
2022/09/04 06:53:28;;;;;;;12.13;10.20;;;19.10;99.90;;;;;;5000101;28;20201;-53
2022/09/04 06:56:20;;;;;;;12.73;10.53;;;19.20;99.90;;;;;;4998510;28;20705;-53
2022/09/04 06:58:57;;;;;;;11.17;10.07;;;19.20;99.90;;;;;;4996483;28;20201;-52
2022/09/04 07:01:30;;;;;;;11.50;10.30;;;19.30;99.90;;;;;;4992960;28;20723;-52
2022/09/04 07:04:27;;;;;;;11.83;10.60;;;19.40;99.90;;;;;;5014332;28;20255;-53
2022/09/04 07:07:21;;;;;;;13.87;10.33;;;19.60;99.90;;;;;;4996279;28;20240;-53
2022/09/04 07:10:08;;;;;;;12.17;10.40;;;19.40;99.90;;;;;;4991525;28;20205;-52
2022/09/04 07:13:08;;;;;;;12.20;10.50;;;19.60;99.90;;;;;;4996326;28;20751;-52
2022/09/04 07:15:58;;;;;;;13.33;10.83;;;19.90;99.90;;;;;;4992206;28;20264;-53
2022/09/04 07:18:53;;;;;;;12.87;10.67;;;20.10;99.90;;;;;;4995914;28;20210;-53
2022/09/04 07:21:55;;;;;;;11.30;10.00;;;20.00;99.90;;;;;;4629882;28;9999992;-52
2022/09/04 07:24:48;;;;;;;12.03;10.10;;;20.00;99.90;;;;;;4993394;28;20200;-53
2022/09/04 07:28:00;;;;;;;14.83;9.83;;;20.30;99.90;;;;;;4991893;28;20896;-53
2022/09/04 07:30:35;;;;;;;12.80;10.33;;;20.60;99.90;;;;;;4923567;28;20209;-52
2022/09/04 07:33:14;;;;;;;11.07;9.73;;;20.80;99.90;;;;;;4984505;28;20292;-53
2022/09/04 07:36:11;;;;;;;14.53;10.30;;;20.70;99.90;;;;;;4989458;28;20599;-53
2022/09/04 07:39:06;;;;;;;12.23;9.70;;;20.90;99.90;;;;;;4967684;28;20280;-53
2022/09/04 07:41:44;;;;;;;12.60;9.47;;;20.90;99.90;;;;;;4986246;28;20202;-54
2022/09/04 07:44:33;;;;;;;12.13;9.90;;;21.10;99.90;;;;;;4993700;28;20251;-52
2022/09/04 07:47:11;;;;;;;11.80;9.97;;;21.20;99.90;;;;;;4986549;28;20364;-53
2022/09/04 07:49:41;;;;;;;12.13;10.80;;;21.10;99.90;;;;;;4991705;28;20206;-52
2022/09/04 07:52:20;;;;;;;13.53;10.77;;;21.00;99.90;;;;;;5002637;28;20229;-53
2022/09/04 07:55:02;;;;;;;12.07;9.80;;;21.00;99.90;;;;;;4988149;28;20221;-52
2022/09/04 07:57:54;;;;;;;11.47;9.80;;;21.10;99.90;;;;;;4986849;28;20308;-52
2022/09/04 08:00:21;;;;;;;11.40;9.70;;;21.30;99.90;;;;;;4982578;28;20268;-52
2022/09/04 08:03:27;;;;;;;16.03;10.70;;;21.20;99.90;;;;;;4982578;28;20563;-52
2022/09/04 08:06:15;;;;;;;12.73;10.67;;;21.20;99.90;;;;;;4985021;28;20210;-52
2022/09/04 08:08:57;;;;;;;14.57;11.07;;;21.60;99.90;;;;;;5004749;28;20712;-52
2022/09/04 08:11:35;;;;;;;13.37;10.47;;;21.70;99.90;;;;;;4992040;28;20198;-53
2022/09/04 08:14:20;;;;;;;12.30;10.83;;;21.80;99.90;;;;;;4992499;28;20197;-53
2022/09/04 08:17:05;;;;;;;11.90;10.60;;;21.70;99.90;;;;;;4983013;28;20228;-52
2022/09/04 08:19:44;;;;;;;12.67;10.97;;;22.00;99.90;;;;;;4989319;28;20206;-52
2022/09/04 08:22:19;;;;;;;16.20;11.87;;;22.10;99.90;;;;;;4991137;28;20229;-52
2022/09/04 08:25:06;;;;;;;15.80;11.63;;;22.20;99.90;;;;;;4990915;28;20202;-53
2022/09/04 08:27:48;;;;;;;14.37;11.60;;;22.30;99.90;;;;;;4992607;28;20312;-51
2022/09/04 08:30:19;;;;;;;13.53;11.53;;;22.30;99.90;;;;;;4988956;28;20205;-52
2022/09/04 08:32:51;;;;;;;14.43;12.30;;;22.40;99.90;;;;;;4989173;28;20324;-53
2022/09/04 08:35:33;;;;;;;13.97;11.33;;;22.40;99.90;;;;;;4992012;28;20349;-52
2022/09/04 08:38:18;;;;;;;15.43;12.03;;;22.60;99.90;;;;;;4991716;28;20297;-53
2022/09/04 08:41:14;;;;;;;17.13;13.07;;;22.90;99.90;;;;;;4992207;28;20240;-53
2022/09/04 08:44:18;;;;;;;14.80;12.87;;;23.10;99.90;;;;;;4990807;28;20455;-54
2022/09/04 08:47:36;;;;;;;13.27;11.87;;;23.30;99.90;;;;;;5006245;28;20300;-53
2022/09/04 08:50:42;;;;;;;16.67;12.13;;;23.80;99.90;;;;;;4919370;29;20717;-53
2022/09/04 08:53:47;;;;;;;15.03;12.93;;;23.80;99.90;;;;;;4918840;29;20221;-52
2022/09/04 08:56:33;;;;;;;13.43;11.63;;;23.80;99.90;;;;;;4996629;28;20207;-52
2022/09/04 08:59:21;;;;;;;15.80;12.43;;;23.90;99.90;;;;;;4991009;28;20268;-52
2022/09/04 09:02:04;;;;;;;14.07;11.80;;;23.60;99.90;;;;;;4989815;28;20206;-53
2022/09/04 09:05:25;;;;;;;14.53;11.63;;;23.80;99.90;;;;;;4993991;28;20203;-51
2022/09/04 09:08:05;;;;;;;14.63;10.50;;;23.90;99.90;;;;;;4954664;28;20233;-52
2022/09/04 09:10:35;;;;;;;14.23;12.37;;;24.40;99.90;;;;;;4985834;28;20204;-53
2022/09/04 09:13:28;;;;;;;12.73;11.23;;;24.20;99.90;;;;;;4986847;28;20220;-53
2022/09/04 09:16:04;;;;;;;15.00;11.33;;;24.20;99.90;;;;;;4980064;28;20229;-52
2022/09/04 09:18:36;;;;;;;11.57;10.30;;;24.10;99.90;;;;;;4990489;28;20295;-53
2022/09/04 09:21:17;;;;;;;10.57;9.30;;;24.30;99.90;;;;;;4988978;28;20202;-52
2022/09/04 09:24:14;;;;;;;11.53;9.40;;;24.70;99.90;;;;;;4982299;28;20241;-54
2022/09/04 09:27:16;;;;;;;11.00;9.03;;;24.60;99.90;;;;;;4984284;28;20635;-53
2022/09/04 09:29:43;;;;;;;10.50;8.83;;;24.40;99.90;;;;;;4980909;28;20300;-53
2022/09/04 09:32:32;;;;;;;10.38;8.57;;;25.00;99.90;;;;;;4987332;28;20206;-53
2022/09/04 09:35:07;;;;;;;14.13;9.65;;;24.80;99.90;;;;;;4981004;28;21340;-52
2022/09/04 09:37:53;;;;;;;12.23;9.27;;;25.00;99.90;;;;;;4980928;28;20284;-53
2022/09/04 09:40:52;;;;;;;10.07;8.20;;;24.90;99.90;;;;;;4980886;28;20300;-52
2022/09/04 09:43:40;;;;;;;7.75;6.82;;;25.10;99.90;;;;;;4983990;28;20224;-52
2022/09/04 09:46:18;;;;;;;12.15;7.78;;;25.60;99.90;;;;;;4987632;28;20626;-52
2022/09/04 09:49:06;;;;;;;8.30;7.10;;;25.90;99.90;;;;;;4981502;28;20222;-53
2022/09/04 09:51:58;;;;;;;6.65;5.55;;;26.00;99.90;;;;;;4985672;28;20252;-53
2022/09/04 09:54:42;;;;;;;9.50;7.57;;;25.90;99.90;;;;;;4999011;28;20276;-54
2022/09/04 09:57:12;;;;;;;7.30;6.32;;;25.40;99.90;;;;;;4982446;28;20217;-53
2022/09/04 09:59:39;;;;;;;8.43;6.72;;;25.10;99.90;;;;;;4980137;28;20205;-54
2022/09/04 10:02:30;;;;;;;7.18;5.78;;;24.90;99.90;;;;;;4977409;28;20203;-53
2022/09/04 10:05:36;;;;;;;7.72;5.43;;;25.00;99.90;;;;;;4988020;28;20205;-53
2022/09/04 10:08:16;;;;;;;6.00;4.63;;;25.30;99.90;;;;;;4980819;28;20721;-53
2022/09/04 10:11:07;;;;;;;6.97;5.20;;;25.30;99.90;;;;;;4982863;28;20665;-53
2022/09/04 10:14:00;;;;;;;4.50;4.10;;;25.30;99.90;;;;;;4977119;28;20259;-52
2022/09/04 10:16:48;;;;;;;5.13;4.20;;;25.10;99.90;;;;;;4983376;28;20232;-53
2022/09/04 10:19:27;;;;;;;6.00;4.38;;;25.30;99.90;;;;;;4981886;28;20546;-53
2022/09/04 10:22:16;;;;;;;5.70;4.78;;;25.60;99.90;;;;;;4986102;28;20245;-53
2022/09/04 10:24:53;;;;;;;5.50;4.43;;;25.90;99.90;;;;;;4978599;28;20197;-52
2022/09/04 10:27:49;;;;;;;7.85;4.95;;;25.70;99.90;;;;;;4974755;28;20662;-55
2022/09/04 10:30:21;;;;;;;4.47;3.72;;;25.50;99.90;;;;;;4969429;28;20296;-53
2022/09/04 10:33:42;;;;;;;5.20;3.90;;;25.40;99.90;;;;;;4980804;28;20225;-55
2022/09/04 10:36:17;;;;;;;4.30;3.33;;;25.70;99.90;;;;;;4897376;29;20299;-53
2022/09/04 10:42:04;;;;;;;6.40;3.58;;;25.40;99.90;;;;;;4989438;28;20557;-54
2022/09/04 10:44:31;;;;;;;9.00;3.42;;;25.40;99.90;;;;;;4978727;28;20534;-54
2022/09/04 10:47:29;;;;;;;5.40;3.78;;;25.30;99.90;;;;;;4986187;28;20209;-55
2022/09/04 10:50:04;;;;;;;5.55;4.40;;;25.30;99.90;;;;;;4984916;28;20210;-55
2022/09/04 10:53:10;;;;;;;5.15;4.63;;;25.20;99.90;;;;;;4991554;28;20230;-57
2022/09/04 10:56:04;;;;;;;3.53;2.80;;;25.40;99.90;;;;;;4944611;28;20795;-54
2022/09/04 10:58:49;;;;;;;3.50;2.97;;;25.80;99.90;;;;;;4983823;28;20300;-54
2022/09/04 11:01:32;;;;;;;2.77;2.40;;;25.90;99.90;;;;;;4982662;28;20204;-54
2022/09/04 11:04:13;;;;;;;3.00;2.63;;;26.00;99.90;;;;;;4987078;28;20674;-57
2022/09/04 11:07:11;;;;;;;3.92;2.60;;;26.10;99.90;;;;;;4985605;28;20617;-56
2022/09/04 11:09:53;;;;;;;3.92;1.60;;;26.20;99.90;;;;;;4984594;28;20392;-55
2022/09/04 11:12:34;;;;;;;1.70;1.30;;;26.30;99.90;;;;;;4993438;28;20201;-56
2022/09/04 11:15:11;;;;;;;2.53;1.60;;;26.30;99.90;;;;;;4995448;28;20620;-55
2022/09/04 11:18:18;;;;;;;5.55;2.20;;;26.40;99.90;;;;;;4997970;28;20202;-55
2022/09/04 11:21:19;;;;;;;3.35;2.13;;;26.70;99.90;;;;;;4991487;28;20777;-56
2022/09/04 11:24:01;;;;;;;2.33;1.83;;;27.40;99.90;;;;;;4972650;28;20213;-56
2022/09/04 11:27:00;;;;;;;1.77;1.67;;;26.90;99.90;;;;;;4991566;28;20292;-56
2022/09/04 11:30:02;;;;;;;1.45;1.35;;;27.10;99.90;;;;;;4993456;28;20698;-56
2022/09/04 11:32:50;;;;;;;3.58;1.77;;;27.20;99.90;;;;;;4992307;28;20606;-56
2022/09/04 11:35:55;;;;;;;3.20;2.33;;;26.70;99.90;;;;;;4994071;28;20206;-56
2022/09/04 11:39:03;;;;;;;4.20;2.38;;;26.60;99.90;;;;;;4989935;28;20480;-56
2022/09/04 11:41:49;;;;;;;2.70;2.00;;;26.20;99.90;;;;;;4990435;28;20691;-54
2022/09/04 11:44:27;;;;;;;1.77;1.67;;;26.20;99.90;;;;;;4990339;28;20231;-54
2022/09/04 11:47:12;;;;;;;2.47;1.70;;;26.00;99.90;;;;;;4988968;28;20328;-53
2022/09/04 11:49:45;;;;;;;2.30;1.87;;;26.20;99.90;;;;;;4987740;28;20217;-53
2022/09/04 11:52:33;;;;;;;3.30;1.77;;;26.20;99.90;;;;;;4992808;28;20287;-54
2022/09/04 11:55:33;;;;;;;2.93;2.13;;;26.00;99.90;;;;;;4991838;28;20319;-54
2022/09/04 11:58:46;;;;;;;3.17;2.17;;;26.10;99.90;;;;;;4991333;28;20233;-54
2022/09/04 12:01:34;;;;;;;3.63;2.43;;;26.40;99.90;;;;;;4988082;28;20423;-54
2022/09/04 12:04:38;;;;;;;2.90;1.93;;;26.40;99.90;;;;;;4990561;28;20231;-54
2022/09/04 12:07:20;;;;;;;2.43;2.20;;;26.60;99.90;;;;;;4992294;28;20295;-55
2022/09/04 12:10:11;;;;;;;3.10;2.33;;;26.80;99.90;;;;;;4987025;28;20222;-53
2022/09/04 12:13:05;;;;;;;2.60;2.40;;;26.90;99.90;;;;;;4989737;28;20294;-52
2022/09/04 12:16:20;;;;;;;3.07;2.10;;;26.80;99.90;;;;;;4996580;28;20305;-53
2022/09/04 12:19:21;;;;;;;3.57;2.33;;;26.70;99.90;;;;;;4990175;28;20206;-53
2022/09/04 12:22:21;;;;;;;6.67;2.73;;;26.90;99.90;;;;;;4989136;28;20336;-53
2022/09/04 12:25:13;;;;;;;5.10;2.70;;;26.80;99.90;;;;;;4977250;28;20259;-53
2022/09/04 12:27:52;;;;;;;2.87;2.63;;;26.80;99.90;;;;;;4976777;28;20702;-52
2022/09/04 12:30:28;;;;;;;2.30;2.10;;;27.10;99.90;;;;;;4990057;28;20304;-53
2022/09/04 12:33:24;;;;;;;2.27;2.07;;;27.60;99.90;;;;;;4989278;28;20201;-53
2022/09/04 12:36:12;;;;;;;5.03;2.37;;;27.60;99.90;;;;;;4991892;28;20222;-53
2022/09/04 12:39:16;;;;;;;2.60;2.40;;;27.90;99.90;;;;;;4990657;28;20308;-53
2022/09/04 12:42:01;;;;;;;4.10;2.20;;;28.20;99.90;;;;;;4994390;28;20237;-53
2022/09/04 12:44:41;;;;;;;4.70;2.00;;;28.40;99.90;;;;;;4990542;28;20208;-54
2022/09/04 12:47:20;;;;;;;2.73;2.10;;;28.20;99.90;;;;;;4991798;28;20213;-53
2022/09/04 12:50:09;;;;;;;2.90;2.20;;;27.90;99.90;;;;;;4984554;28;20311;-53
2022/09/04 12:53:14;;;;;;;3.00;1.90;;;28.10;99.90;;;;;;4988715;28;20289;-54
2022/09/04 12:55:57;;;;;;;2.40;2.20;;;28.20;99.90;;;;;;4985305;28;20817;-53
2022/09/04 12:58:46;;;;;;;3.60;2.37;;;28.60;99.90;;;;;;4987147;28;20205;-53
2022/09/04 13:01:31;;;;;;;3.00;2.10;;;28.20;99.90;;;;;;4987052;28;20699;-53
2022/09/04 13:04:04;;;;;;;2.97;2.00;;;28.30;99.90;;;;;;4984269;28;20248;-53
2022/09/04 13:06:45;;;;;;;2.23;2.03;;;28.30;99.90;;;;;;4992316;28;20882;-53
2022/09/04 13:09:42;;;;;;;3.03;2.20;;;28.10;99.90;;;;;;4985755;28;20214;-53
2022/09/04 13:12:56;;;;;;;2.95;1.88;;;28.00;99.90;;;;;;4981731;28;20278;-53
2022/09/04 13:15:44;;;;;;;3.23;1.93;;;28.40;99.90;;;;;;4972550;28;20202;-53
2022/09/04 13:18:59;;;;;;;2.53;2.17;;;28.60;99.90;;;;;;4982582;28;20618;-53
2022/09/04 13:21:54;;;;;;;3.57;1.90;;;28.30;99.90;;;;;;4966769;28;20205;-53
2022/09/04 13:24:38;;;;;;;2.30;2.03;;;28.10;99.90;;;;;;4959228;28;20217;-53
2022/09/04 13:27:25;;;;;;;2.47;2.08;;;28.10;99.90;;;;;;4990910;28;20201;-55
2022/09/04 13:30:23;;;;;;;3.97;2.00;;;28.20;99.90;;;;;;4977461;28;20236;-54
2022/09/04 13:32:50;;;;;;;4.83;1.97;;;27.90;99.90;;;;;;4997211;28;20329;-54
2022/09/04 13:35:42;;;;;;;1.93;1.70;;;27.80;99.90;;;;;;4981001;28;20228;-54
2022/09/04 13:38:33;;;;;;;2.23;1.67;;;27.70;99.90;;;;;;4991405;28;20267;-54
2022/09/04 13:41:12;;;;;;;2.10;1.90;;;27.90;99.90;;;;;;4983843;28;20256;-53
2022/09/04 13:44:00;;;;;;;3.87;1.63;;;28.00;99.90;;;;;;4984408;28;20292;-53
2022/09/04 13:46:33;;;;;;;3.38;2.00;;;28.00;99.90;;;;;;4982901;28;20268;-54
2022/09/04 13:49:07;;;;;;;1.40;1.30;;;28.20;99.90;;;;;;4988882;28;20236;-53
2022/09/04 13:52:22;;;;;;;2.97;1.80;;;28.30;99.90;;;;;;4987936;28;20327;-52
2022/09/04 13:54:59;;;;;;;4.23;1.67;;;28.40;99.90;;;;;;4908498;29;20307;-54
2022/09/04 13:57:31;;;;;;;2.10;1.63;;;28.10;99.90;;;;;;4907121;29;20839;-54
2022/09/04 14:00:06;;;;;;;2.57;2.10;;;28.20;99.90;;;;;;4892512;29;21009;-53
2022/09/04 14:02:35;;;;;;;3.83;1.37;;;28.30;99.90;;;;;;4900869;29;20211;-54
2022/09/04 14:05:16;;;;;;;2.40;1.20;;;28.10;99.90;;;;;;4924714;29;20327;-53
2022/09/04 14:07:48;;;;;;;1.83;1.53;;;28.20;99.90;;;;;;4897719;29;20216;-52
2022/09/04 14:10:59;;;;;;;4.10;1.20;;;28.30;99.90;;;;;;4907519;29;21031;-54
2022/09/04 14:14:06;;;;;;;1.90;1.30;;;28.40;99.90;;;;;;4898687;29;20217;-52
2022/09/04 14:16:35;;;;;;;1.73;1.17;;;28.30;99.90;;;;;;4906208;29;20836;-53
2022/09/04 14:19:11;;;;;;;3.67;1.23;;;28.20;99.90;;;;;;4903321;29;20392;-53
2022/09/04 14:21:44;;;;;;;1.30;1.10;;;28.20;99.90;;;;;;4905530;29;20208;-53